Time;durP1;ratioP1;P1;durP2;ratioP2;P2;SDS_P1;SDS_P2;PMS_P1;PMS_P2;Temp;Humidity;BMP_temperature;BMP_pressure;BME280_temperature;BME280_humidity;BME280_pressure;Samples;Min_cycle;Max_cycle;Signal;HPM_P1;HPM_P2
2021/06/26 00:01:00;;;;;;;19.40;14.73;;;15.00;99.90;;;;;;4974920;28;20279;-75
2021/06/26 00:03:27;;;;;;;17.60;14.13;;;15.00;99.90;;;;;;4973167;28;20180;-75
2021/06/26 00:05:54;;;;;;;13.87;12.43;;;15.00;99.90;;;;;;4974697;28;20401;-75
2021/06/26 00:08:20;;;;;;;12.17;10.90;;;15.00;99.90;;;;;;4974655;28;20465;-75
2021/06/26 00:10:46;;;;;;;14.40;12.73;;;14.90;99.90;;;;;;4974715;28;20474;-75
2021/06/26 00:13:12;;;;;;;13.20;11.80;;;15.00;99.90;;;;;;4974042;28;20430;-75
2021/06/26 00:15:38;;;;;;;21.40;11.77;;;15.00;99.90;;;;;;4974417;28;20436;-74
2021/06/26 00:18:04;;;;;;;12.93;11.33;;;14.90;99.90;;;;;;4973462;28;20191;-74
2021/06/26 00:20:30;;;;;;;16.93;12.80;;;14.90;99.90;;;;;;4974627;28;20231;-74
2021/06/26 00:22:55;;;;;;;12.70;11.20;;;14.80;99.90;;;;;;4974225;28;20390;-75
2021/06/26 00:25:25;;;;;;;24.30;14.20;;;14.80;99.90;;;;;;4974325;28;20502;-74
2021/06/26 00:27:51;;;;;;;16.10;13.77;;;14.80;99.90;;;;;;4974319;28;20187;-75
2021/06/26 00:30:18;;;;;;;18.57;14.77;;;14.80;99.90;;;;;;4974453;28;20416;-74
2021/06/26 00:32:44;;;;;;;16.40;13.57;;;14.80;99.90;;;;;;4974059;28;20416;-75
2021/06/26 00:35:11;;;;;;;17.50;13.73;;;14.70;99.90;;;;;;4974284;28;20418;-75
2021/06/26 00:37:37;;;;;;;17.80;12.83;;;14.70;99.90;;;;;;4974138;28;20412;-75
2021/06/26 00:40:04;;;;;;;15.33;11.63;;;14.70;99.90;;;;;;4974425;28;20855;-75
2021/06/26 00:42:31;;;;;;;21.70;14.10;;;14.70;99.90;;;;;;4974151;28;20430;-74
2021/06/26 00:44:57;;;;;;;16.57;13.80;;;14.70;99.90;;;;;;4974246;28;20418;-75
2021/06/26 00:47:23;;;;;;;18.10;13.83;;;14.60;99.90;;;;;;4973417;28;20430;-75
2021/06/26 00:49:48;;;;;;;17.80;12.80;;;14.60;99.90;;;;;;4974231;28;20306;-75
2021/06/26 00:52:14;;;;;;;19.03;15.43;;;14.60;99.90;;;;;;4976855;28;20829;-75
2021/06/26 00:54:40;;;;;;;19.20;13.70;;;14.60;99.90;;;;;;4977786;28;20196;-75
2021/06/26 00:57:06;;;;;;;18.53;13.03;;;14.60;99.90;;;;;;4978286;28;20541;-74
2021/06/26 00:59:33;;;;;;;15.50;12.80;;;14.50;99.90;;;;;;4978077;28;20448;-75
2021/06/26 01:01:58;;;;;;;12.87;10.97;;;14.50;99.90;;;;;;4977924;28;20515;-74
2021/06/26 01:04:24;;;;;;;19.93;13.97;;;14.60;99.90;;;;;;4977595;28;20530;-75
2021/06/26 01:06:50;;;;;;;17.43;15.07;;;14.60;99.90;;;;;;4977821;28;20219;-74
2021/06/26 01:09:15;;;;;;;14.43;12.67;;;14.60;99.90;;;;;;4977877;28;20220;-74
2021/06/26 01:11:41;;;;;;;17.70;14.83;;;14.50;99.90;;;;;;4977868;28;20177;-74
2021/06/26 01:14:07;;;;;;;15.40;13.77;;;14.50;99.90;;;;;;4977238;28;20223;-73
2021/06/26 01:16:32;;;;;;;17.93;14.40;;;14.50;99.90;;;;;;4977717;28;20227;-75
2021/06/26 01:18:58;;;;;;;18.20;14.40;;;14.40;99.90;;;;;;4977805;28;20207;-74
2021/06/26 01:21:23;;;;;;;17.27;14.70;;;14.40;99.90;;;;;;4977660;28;20296;-74
2021/06/26 01:23:54;;;;;;;15.70;13.73;;;14.40;99.90;;;;;;4977170;28;20227;-75
2021/06/26 01:26:21;;;;;;;17.50;14.93;;;14.30;99.90;;;;;;4976363;28;20692;-75
2021/06/26 01:28:47;;;;;;;18.80;14.40;;;14.20;99.90;;;;;;4977309;28;20426;-74
2021/06/26 01:31:13;;;;;;;17.57;14.80;;;14.20;99.90;;;;;;4977362;28;20394;-75
2021/06/26 01:33:39;;;;;;;16.90;15.10;;;14.10;99.90;;;;;;4976956;28;20443;-74
2021/06/26 01:36:04;;;;;;;20.33;17.10;;;14.00;99.90;;;;;;4977184;28;20584;-74
2021/06/26 01:38:30;;;;;;;19.40;16.63;;;13.90;99.90;;;;;;4977316;28;20215;-74
2021/06/26 01:40:56;;;;;;;24.93;18.27;;;14.00;99.90;;;;;;4975983;28;20223;-73
2021/06/26 01:43:21;;;;;;;20.80;15.97;;;14.00;99.90;;;;;;4976829;28;20305;-74
2021/06/26 01:45:47;;;;;;;28.37;19.63;;;14.00;99.90;;;;;;4975840;28;20200;-74
2021/06/26 01:48:12;;;;;;;24.23;18.60;;;14.00;99.90;;;;;;4975813;28;20231;-74
2021/06/26 01:50:38;;;;;;;23.60;19.27;;;13.90;99.90;;;;;;4977141;28;20263;-75
2021/06/26 01:53:04;;;;;;;24.13;18.80;;;13.90;99.90;;;;;;4976709;28;20188;-75
2021/06/26 01:55:30;;;;;;;26.13;19.73;;;13.90;99.90;;;;;;4976935;28;20274;-75
2021/06/26 01:57:56;;;;;;;21.80;18.60;;;13.90;99.90;;;;;;4976958;28;20390;-73
2021/06/26 02:00:24;;;;;;;24.20;18.60;;;13.90;99.90;;;;;;4976767;28;20416;-75
2021/06/26 02:02:50;;;;;;;20.97;17.60;;;13.90;99.90;;;;;;4975875;28;20411;-74
2021/06/26 02:05:18;;;;;;;22.40;17.33;;;13.90;99.90;;;;;;4976945;28;20409;-75
2021/06/26 02:07:45;;;;;;;22.70;19.07;;;13.90;99.90;;;;;;4976983;28;20502;-75
2021/06/26 02:10:11;;;;;;;26.67;17.20;;;13.90;99.90;;;;;;4976560;28;20466;-75
2021/06/26 02:12:37;;;;;;;21.17;16.00;;;13.90;99.90;;;;;;4976629;28;20422;-74
2021/06/26 02:15:04;;;;;;;25.00;16.27;;;13.80;99.90;;;;;;4976306;28;20459;-75
2021/06/26 02:17:29;;;;;;;19.73;16.80;;;13.70;99.90;;;;;;4975341;28;20188;-75
2021/06/26 02:19:55;;;;;;;18.83;15.90;;;13.70;99.90;;;;;;4976577;28;20891;-74
2021/06/26 02:22:21;;;;;;;18.07;15.83;;;13.70;99.90;;;;;;4976392;28;20203;-74
2021/06/26 02:24:46;;;;;;;22.40;17.20;;;13.70;99.90;;;;;;4976189;28;20211;-74
2021/06/26 02:27:12;;;;;;;18.00;14.87;;;13.80;99.90;;;;;;4976446;28;20242;-75
2021/06/26 02:29:38;;;;;;;20.60;16.67;;;13.70;99.90;;;;;;4975153;28;20467;-74
2021/06/26 02:32:05;;;;;;;18.37;16.40;;;13.70;99.90;;;;;;4975091;28;20188;-74
2021/06/26 02:34:30;;;;;;;22.77;16.87;;;13.70;99.90;;;;;;4976030;28;20664;-75
2021/06/26 02:36:56;;;;;;;21.37;17.73;;;13.70;99.90;;;;;;4976242;28;20423;-73
2021/06/26 02:39:22;;;;;;;19.60;15.93;;;13.70;99.90;;;;;;4976344;28;20187;-74
2021/06/26 02:41:47;;;;;;;22.00;18.33;;;13.70;99.90;;;;;;4976101;28;20231;-73
2021/06/26 02:44:13;;;;;;;23.10;18.20;;;13.70;99.90;;;;;;4975695;28;20239;-73
2021/06/26 02:46:39;;;;;;;23.50;17.50;;;13.60;99.90;;;;;;4976047;28;20188;-74
2021/06/26 02:49:05;;;;;;;23.40;18.93;;;13.60;99.90;;;;;;4976044;28;20215;-73
2021/06/26 02:51:30;;;;;;;29.30;20.80;;;13.60;99.90;;;;;;4976312;28;20180;-75
2021/06/26 02:53:56;;;;;;;26.47;20.07;;;13.60;99.90;;;;;;4975562;28;20571;-74
2021/06/26 02:56:22;;;;;;;32.00;22.23;;;13.50;99.90;;;;;;4976127;28;20176;-73
2021/06/26 02:58:48;;;;;;;32.20;21.27;;;13.40;99.90;;;;;;4975901;28;20525;-74
2021/06/26 03:01:14;;;;;;;27.03;20.07;;;13.40;99.90;;;;;;4975958;28;20486;-74
2021/06/26 03:03:40;;;;;;;26.83;19.90;;;13.40;99.90;;;;;;4975699;28;20192;-73
2021/06/26 03:06:05;;;;;;;22.80;18.47;;;13.40;99.90;;;;;;4975770;28;20447;-74
2021/06/26 03:08:31;;;;;;;24.50;18.10;;;13.40;99.90;;;;;;4975674;28;20208;-74
2021/06/26 03:10:56;;;;;;;21.90;16.43;;;13.40;99.90;;;;;;4975560;28;20183;-73
2021/06/26 03:13:22;;;;;;;22.73;18.17;;;13.30;99.90;;;;;;4975295;28;20192;-73
2021/06/26 03:15:48;;;;;;;23.93;17.53;;;13.30;99.90;;;;;;4974781;28;20331;-74
2021/06/26 03:18:14;;;;;;;26.00;17.90;;;13.40;99.90;;;;;;4975560;28;20335;-75
2021/06/26 03:20:40;;;;;;;24.47;19.50;;;13.30;99.90;;;;;;4975585;28;20191;-74
2021/06/26 03:23:06;;;;;;;27.53;19.47;;;13.30;99.90;;;;;;4975178;28;20390;-74
2021/06/26 03:25:32;;;;;;;24.80;20.30;;;13.30;99.90;;;;;;4975455;28;20435;-73
2021/06/26 03:27:57;;;;;;;29.40;21.40;;;13.30;99.90;;;;;;4975368;28;20431;-74
2021/06/26 03:30:23;;;;;;;27.27;20.50;;;13.20;99.90;;;;;;4975238;28;20184;-75
2021/06/26 03:32:49;;;;;;;29.53;21.70;;;13.20;99.90;;;;;;4974896;28;20259;-75
2021/06/26 03:35:14;;;;;;;26.80;19.83;;;13.30;99.90;;;;;;4975099;28;20278;-74
2021/06/26 03:37:41;;;;;;;27.07;20.47;;;13.30;99.90;;;;;;4975155;28;20622;-75
2021/06/26 03:40:07;;;;;;;28.60;20.03;;;13.20;99.90;;;;;;4975078;28;20191;-75
2021/06/26 03:42:33;;;;;;;28.97;21.63;;;13.20;99.90;;;;;;4973631;28;20951;-75
2021/06/26 03:44:58;;;;;;;29.50;21.73;;;13.30;99.90;;;;;;4974595;28;20444;-74
2021/06/26 03:47:25;;;;;;;27.00;20.50;;;13.20;99.90;;;;;;4974976;28;20190;-75
2021/06/26 03:49:51;;;;;;;27.33;18.10;;;13.20;99.90;;;;;;4974863;28;20215;-74
2021/06/26 03:52:17;;;;;;;32.67;21.37;;;13.20;99.90;;;;;;4975034;28;20420;-73
2021/06/26 03:54:43;;;;;;;25.43;19.90;;;13.20;99.90;;;;;;4974550;28;20661;-75
2021/06/26 03:57:09;;;;;;;26.73;19.40;;;13.30;99.90;;;;;;4974734;28;20224;-75
2021/06/26 03:59:35;;;;;;;29.77;21.07;;;13.30;99.90;;;;;;4974836;28;20428;-75
2021/06/26 04:02:00;;;;;;;31.40;23.50;;;13.40;99.90;;;;;;4974787;28;20180;-75
2021/06/26 04:04:26;;;;;;;26.73;20.50;;;13.40;99.90;;;;;;4974570;28;20208;-75
2021/06/26 04:06:52;;;;;;;33.90;23.83;;;13.40;99.90;;;;;;4974662;28;20184;-75
2021/06/26 04:09:17;;;;;;;27.63;21.47;;;13.40;99.90;;;;;;4974821;28;20584;-75
2021/06/26 04:11:43;;;;;;;36.00;25.30;;;13.50;99.90;;;;;;4974658;28;20180;-75
2021/06/26 04:14:08;;;;;;;29.70;23.30;;;13.40;99.90;;;;;;4974146;28;20223;-75
2021/06/26 04:16:34;;;;;;;29.60;22.40;;;13.20;99.90;;;;;;4974674;28;20255;-74
2021/06/26 04:19:00;;;;;;;29.93;21.10;;;13.10;99.90;;;;;;4973264;28;20179;-75
2021/06/26 04:21:25;;;;;;;28.23;21.77;;;13.20;99.90;;;;;;4973440;28;20280;-74
2021/06/26 04:23:51;;;;;;;24.60;18.43;;;13.30;99.90;;;;;;4974116;28;20211;-74
2021/06/26 04:26:16;;;;;;;25.30;21.00;;;13.40;99.90;;;;;;4974163;28;20270;-74
2021/06/26 04:28:42;;;;;;;28.30;21.70;;;13.50;99.90;;;;;;4974204;28;20286;-74
2021/06/26 04:31:08;;;;;;;30.53;22.43;;;13.50;99.90;;;;;;4974476;28;20535;-75
2021/06/26 04:33:33;;;;;;;27.73;21.40;;;13.70;99.90;;;;;;4973982;28;20184;-74
2021/06/26 04:35:59;;;;;;;35.87;22.97;;;13.70;99.90;;;;;;4974403;28;20180;-74
2021/06/26 04:38:25;;;;;;;28.30;22.17;;;13.80;99.90;;;;;;4974332;28;20184;-75
2021/06/26 04:40:53;;;;;;;30.37;22.20;;;13.80;99.90;;;;;;4974263;28;20633;-74
2021/06/26 04:43:19;;;;;;;31.33;21.63;;;13.90;99.90;;;;;;4973729;28;20259;-75
2021/06/26 04:45:46;;;;;;;30.83;21.03;;;14.00;99.90;;;;;;4974048;28;20410;-75
2021/06/26 04:48:12;;;;;;;29.43;21.30;;;14.00;99.90;;;;;;4974198;28;20424;-75
2021/06/26 04:50:38;;;;;;;29.53;21.87;;;14.10;99.90;;;;;;4974213;28;20418;-73
2021/06/26 04:53:04;;;;;;;33.40;23.10;;;14.10;99.90;;;;;;4973871;28;20490;-75
2021/06/26 04:55:29;;;;;;;28.67;22.03;;;14.00;99.90;;;;;;4974136;28;20200;-74
2021/06/26 04:57:55;;;;;;;26.30;21.10;;;14.00;99.90;;;;;;4974367;28;20227;-73
2021/06/26 05:00:21;;;;;;;25.27;20.83;;;14.00;99.90;;;;;;4974286;28;20184;-74
2021/06/26 05:02:47;;;;;;;26.13;20.33;;;14.00;99.90;;;;;;4973882;28;20250;-74
2021/06/26 05:05:13;;;;;;;27.00;21.97;;;14.00;99.90;;;;;;4974193;28;20418;-74
2021/06/26 05:07:39;;;;;;;28.60;22.10;;;14.00;99.90;;;;;;4974085;28;20185;-75
2021/06/26 05:10:05;;;;;;;27.70;21.63;;;14.00;99.90;;;;;;4974083;28;20459;-73
2021/06/26 05:12:31;;;;;;;31.53;22.60;;;14.00;99.90;;;;;;4974066;28;20200;-74
2021/06/26 05:14:56;;;;;;;29.27;22.70;;;14.10;99.90;;;;;;4973467;28;20975;-75
2021/06/26 05:17:22;;;;;;;30.50;22.90;;;14.00;99.90;;;;;;4972720;28;20187;-73
2021/06/26 05:19:48;;;;;;;28.70;22.60;;;13.90;99.90;;;;;;4972919;28;20333;-75
2021/06/26 05:22:13;;;;;;;28.47;21.13;;;13.90;99.90;;;;;;4974173;28;20557;-74
2021/06/26 05:24:40;;;;;;;30.73;20.20;;;13.90;99.90;;;;;;4973735;28;20539;-73
2021/06/26 05:27:06;;;;;;;29.20;22.43;;;14.10;99.90;;;;;;4972756;28;20230;-75
2021/06/26 05:29:32;;;;;;;29.37;23.27;;;14.10;99.90;;;;;;4972713;28;20470;-77
2021/06/26 05:31:58;;;;;;;29.67;22.60;;;14.20;99.90;;;;;;4973787;28;20781;-75
2021/06/26 05:34:23;;;;;;;24.83;21.13;;;14.20;99.90;;;;;;4973706;28;20291;-75
2021/06/26 05:36:49;;;;;;;24.50;20.67;;;14.40;99.90;;;;;;4974022;28;20181;-74
2021/06/26 05:39:15;;;;;;;28.90;20.97;;;14.50;99.90;;;;;;4976226;28;20183;-74
2021/06/26 05:41:40;;;;;;;27.90;20.77;;;14.60;99.90;;;;;;4977205;28;20188;-76
2021/06/26 05:44:06;;;;;;;29.37;20.93;;;14.70;99.90;;;;;;4976747;28;20831;-75
2021/06/26 05:46:32;;;;;;;22.37;18.90;;;14.70;99.90;;;;;;4977299;28;20270;-74
2021/06/26 05:48:58;;;;;;;25.03;20.80;;;14.80;99.90;;;;;;4977082;28;20324;-76
2021/06/26 05:51:24;;;;;;;28.10;21.33;;;15.00;99.90;;;;;;4977227;28;20230;-75
2021/06/26 05:53:50;;;;;;;24.40;19.30;;;15.10;99.90;;;;;;4975433;28;20418;-75
2021/06/26 05:56:15;;;;;;;27.60;21.23;;;15.20;99.90;;;;;;4976978;28;20180;-75
2021/06/26 05:58:41;;;;;;;24.40;19.27;;;15.30;99.90;;;;;;4976993;28;20192;-75
2021/06/26 06:01:10;;;;;;;24.93;18.43;;;15.30;99.90;;;;;;4975938;28;20176;-74
2021/06/26 06:03:37;;;;;;;22.80;18.40;;;15.40;99.90;;;;;;4975267;28;20481;-76
2021/06/26 06:06:03;;;;;;;22.37;19.10;;;15.40;99.90;;;;;;4975402;28;20428;-76
2021/06/26 06:08:29;;;;;;;25.20;19.00;;;15.40;99.90;;;;;;4976723;28;20469;-76
2021/06/26 06:10:54;;;;;;;23.13;19.10;;;15.50;99.90;;;;;;4975878;28;20189;-78
2021/06/26 06:13:21;;;;;;;31.40;20.77;;;15.60;99.90;;;;;;4975161;28;20223;-78
2021/06/26 06:15:49;;;;;;;22.30;19.87;;;15.70;99.90;;;;;;4976612;28;20204;-80
2021/06/26 06:18:16;;;;;;;30.17;19.80;;;15.80;99.90;;;;;;4975185;28;20567;-79
2021/06/26 06:20:43;;;;;;;27.00;20.17;;;15.90;99.90;;;;;;4975589;28;20514;-79
2021/06/26 06:23:08;;;;;;;26.67;20.57;;;16.00;99.90;;;;;;4976472;28;20750;-79
2021/06/26 06:25:34;;;;;;;21.83;17.47;;;16.00;99.90;;;;;;4976412;28;20435;-77
2021/06/26 06:28:03;;;;;;;20.43;18.30;;;16.00;99.90;;;;;;4976480;28;20256;-77
2021/06/26 06:30:33;;;;;;;21.43;17.90;;;16.10;99.90;;;;;;4976290;28;20895;-77
2021/06/26 06:33:00;;;;;;;20.87;17.57;;;16.20;99.90;;;;;;4976142;28;20417;-78
2021/06/26 06:35:26;;;;;;;18.73;16.50;;;16.20;99.90;;;;;;4975199;28;20436;-78
2021/06/26 06:37:51;;;;;;;20.87;17.57;;;16.30;99.90;;;;;;4976393;28;20439;-78
2021/06/26 06:40:17;;;;;;;22.37;16.60;;;16.40;99.90;;;;;;4976163;28;20437;-77
2021/06/26 06:42:43;;;;;;;23.97;17.50;;;16.50;99.90;;;;;;4974827;28;20184;-77
2021/06/26 06:45:10;;;;;;;21.57;18.57;;;16.50;99.90;;;;;;4975995;28;20803;-78
2021/06/26 06:47:36;;;;;;;27.10;18.93;;;16.60;99.90;;;;;;4976169;28;20395;-77
2021/06/26 06:50:03;;;;;;;20.53;18.40;;;16.80;99.90;;;;;;4974647;28;20810;-77
2021/06/26 06:52:31;;;;;;;23.60;18.97;;;16.90;99.90;;;;;;4975829;28;20434;-78
2021/06/26 06:54:56;;;;;;;25.20;18.10;;;16.90;99.90;;;;;;4983619;28;20847;-77
2021/06/26 06:57:24;;;;;;;22.43;17.33;;;17.10;99.90;;;;;;4977306;28;20431;-79
2021/06/26 06:59:50;;;;;;;23.00;17.80;;;17.10;99.90;;;;;;4975137;28;20784;-78
2021/06/26 07:02:16;;;;;;;24.10;19.27;;;17.20;99.90;;;;;;4975850;28;20406;-77
2021/06/26 07:04:42;;;;;;;21.23;17.00;;;17.30;99.90;;;;;;4975142;28;20435;-77
2021/06/26 07:07:08;;;;;;;25.53;19.70;;;17.50;99.90;;;;;;4975972;28;20199;-78
2021/06/26 07:09:33;;;;;;;22.80;18.40;;;17.60;99.90;;;;;;4975834;28;20541;-77
2021/06/26 07:11:59;;;;;;;23.27;20.00;;;17.50;99.90;;;;;;4975704;28;20243;-77
2021/06/26 07:14:26;;;;;;;23.53;18.27;;;17.50;99.90;;;;;;4975405;28;20227;-77
2021/06/26 07:16:51;;;;;;;29.13;20.67;;;17.80;99.90;;;;;;4975459;28;20410;-76
2021/06/26 07:19:17;;;;;;;25.03;19.87;;;18.00;99.90;;;;;;4975587;28;20394;-77
2021/06/26 07:21:43;;;;;;;22.30;19.03;;;18.00;99.90;;;;;;4975602;28;20206;-77
2021/06/26 07:24:08;;;;;;;27.13;19.87;;;18.10;99.90;;;;;;4975412;28;20212;-77
2021/06/26 07:26:34;;;;;;;35.50;20.20;;;18.30;99.90;;;;;;4975845;28;20192;-77
2021/06/26 07:29:00;;;;;;;24.97;21.20;;;18.30;99.90;;;;;;4975398;28;20294;-77
2021/06/26 07:31:25;;;;;;;21.93;17.63;;;18.50;99.90;;;;;;4975455;28;20227;-77
2021/06/26 07:33:51;;;;;;;23.90;19.23;;;18.40;99.90;;;;;;4974963;28;20639;-77
2021/06/26 07:36:17;;;;;;;23.83;18.93;;;18.70;99.90;;;;;;4975395;28;20481;-77
2021/06/26 07:38:43;;;;;;;21.93;18.07;;;18.90;99.90;;;;;;4975211;28;20629;-77
2021/06/26 07:41:08;;;;;;;23.90;19.97;;;19.10;99.90;;;;;;4975256;28;20181;-76
2021/06/26 07:43:35;;;;;;;22.73;20.17;;;19.30;99.90;;;;;;4973648;28;20683;-77
2021/06/26 07:46:03;;;;;;;21.27;18.90;;;19.60;99.90;;;;;;4975492;28;20188;-76
2021/06/26 07:48:29;;;;;;;26.53;22.23;;;19.40;99.90;;;;;;4974958;28;20591;-77
2021/06/26 07:50:55;;;;;;;27.10;19.87;;;19.50;99.90;;;;;;4974913;28;20426;-76
2021/06/26 07:53:20;;;;;;;22.33;19.13;;;19.70;99.90;;;;;;4974664;28;20412;-77
2021/06/26 07:55:52;;;;;;;22.10;19.57;;;19.70;99.90;;;;;;4974791;28;20431;-76
2021/06/26 07:58:26;;;;;;;24.50;21.00;;;19.70;99.90;;;;;;4974980;28;20215;-77
2021/06/26 08:00:52;;;;;;;25.53;19.83;;;19.80;99.90;;;;;;4974092;28;20516;-78
2021/06/26 08:03:19;;;;;;;29.13;18.50;;;20.00;99.90;;;;;;4974624;28;20422;-77
2021/06/26 08:05:46;;;;;;;22.60;17.53;;;20.00;99.90;;;;;;4974460;28;20410;-77
2021/06/26 08:08:12;;;;;;;23.50;18.90;;;20.30;99.90;;;;;;4974691;28;20435;-77
2021/06/26 08:10:39;;;;;;;23.03;18.80;;;20.40;99.90;;;;;;4974697;28;20423;-79
2021/06/26 08:13:04;;;;;;;20.43;17.30;;;20.50;99.90;;;;;;4974057;28;20793;-78
2021/06/26 08:15:31;;;;;;;19.10;16.50;;;21.00;99.90;;;;;;4974860;28;20467;-77
2021/06/26 08:17:57;;;;;;;21.87;17.50;;;21.30;99.90;;;;;;4974707;28;20179;-77
2021/06/26 08:20:23;;;;;;;20.20;18.07;;;21.50;99.90;;;;;;4974493;28;20428;-77
2021/06/26 08:22:49;;;;;;;17.90;16.10;;;21.50;99.90;;;;;;4974137;28;20180;-76
2021/06/26 08:25:15;;;;;;;19.60;16.57;;;21.40;99.90;;;;;;4974224;28;20447;-77
2021/06/26 08:27:41;;;;;;;19.13;16.60;;;21.60;99.90;;;;;;4974486;28;20195;-77
2021/06/26 08:30:07;;;;;;;17.13;15.53;;;21.70;99.90;;;;;;4974418;28;20212;-77
2021/06/26 08:32:33;;;;;;;18.63;16.40;;;22.00;99.90;;;;;;4974346;28;20506;-78
2021/06/26 08:34:59;;;;;;;17.07;14.87;;;22.30;99.90;;;;;;4973942;28;20519;-76
2021/06/26 08:37:24;;;;;;;15.97;14.40;;;22.40;99.90;;;;;;4974421;28;20279;-77
2021/06/26 08:39:50;;;;;;;19.13;16.57;;;22.60;99.90;;;;;;4974285;28;20180;-77
2021/06/26 08:42:18;;;;;;;17.33;15.53;;;22.90;99.90;;;;;;4974244;28;20183;-77
2021/06/26 08:44:48;;;;;;;17.70;15.33;;;22.90;99.90;;;;;;4973779;28;20192;-77
2021/06/26 08:47:15;;;;;;;17.73;15.97;;;23.10;99.90;;;;;;4974092;28;20610;-77
2021/06/26 08:49:41;;;;;;;16.03;14.40;;;23.10;99.90;;;;;;4973992;28;20455;-77
2021/06/26 08:52:07;;;;;;;18.17;16.37;;;23.30;99.90;;;;;;4974169;28;20419;-76
2021/06/26 08:54:33;;;;;;;16.53;14.83;;;23.50;99.90;;;;;;4972473;28;20196;-77
2021/06/26 08:56:58;;;;;;;16.33;14.63;;;23.60;99.90;;;;;;4974164;28;20426;-77
2021/06/26 08:59:24;;;;;;;17.33;14.90;;;23.90;99.90;;;;;;4974039;28;20256;-78
2021/06/26 09:01:50;;;;;;;19.50;14.00;;;24.10;99.90;;;;;;4973938;28;20522;-77
2021/06/26 09:04:20;;;;;;;20.13;12.80;;;24.20;99.90;;;;;;4974009;28;20563;-77
2021/06/26 09:06:57;;;;;;;14.13;12.73;;;24.30;99.90;;;;;;4974059;28;20634;-77
2021/06/26 09:09:37;;;;;;;13.90;12.60;;;24.40;99.90;;;;;;4974198;28;20538;-77
2021/06/26 09:12:11;;;;;;;12.07;10.97;;;24.50;99.90;;;;;;4974154;28;20916;-77
2021/06/26 09:14:38;;;;;;;14.07;12.73;;;24.60;99.90;;;;;;4976724;28;20438;-79
2021/06/26 09:17:06;;;;;;;15.60;13.13;;;24.80;99.90;;;;;;4977906;28;20482;-77
2021/06/26 09:19:33;;;;;;;11.80;10.23;;;24.30;99.90;;;;;;4977656;28;20430;-77
2021/06/26 09:22:04;;;;;;;10.73;9.07;;;24.50;99.90;;;;;;4977622;28;20490;-77
2021/06/26 09:24:48;;;;;;;12.27;9.67;;;25.00;99.90;;;;;;4977227;28;20522;-77
2021/06/26 09:27:16;;;;;;;8.97;8.07;;;25.10;99.90;;;;;;4977874;28;20836;-77
2021/06/26 09:29:52;;;;;;;10.67;9.27;;;25.50;99.90;;;;;;4977401;28;20545;-77
2021/06/26 09:32:26;;;;;;;10.00;9.17;;;26.20;99.90;;;;;;4977655;28;20458;-76
2021/06/26 09:34:52;;;;;;;10.47;9.47;;;26.20;99.90;;;;;;4977285;28;20431;-76
2021/06/26 09:37:24;;;;;;;10.67;9.70;;;26.00;99.90;;;;;;4977404;28;20426;-76
2021/06/26 09:39:55;;;;;;;11.33;9.07;;;26.00;99.90;;;;;;4977369;28;20420;-76
2021/06/26 09:42:26;;;;;;;11.40;8.37;;;26.00;99.90;;;;;;4977344;28;20913;-76
2021/06/26 09:44:58;;;;;;;8.60;7.70;;;26.10;99.90;;;;;;4976923;28;20431;-76
2021/06/26 09:47:38;;;;;;;8.30;7.40;;;25.90;99.90;;;;;;4977143;28;20502;-76
2021/06/26 09:50:14;;;;;;;7.70;7.00;;;26.00;99.90;;;;;;4976977;28;20528;-75
2021/06/26 09:52:47;;;;;;;7.20;6.50;;;25.60;99.90;;;;;;4975774;28;20457;-76
2021/06/26 09:55:22;;;;;;;7.83;7.00;;;25.30;99.90;;;;;;4976912;28;20423;-75
2021/06/26 09:57:51;;;;;;;6.33;5.83;;;25.50;99.90;;;;;;4976799;28;20773;-76
2021/06/26 10:00:19;;;;;;;7.77;6.10;;;25.80;99.90;;;;;;4976803;28;20784;-75
2021/06/26 10:02:45;;;;;;;6.10;5.53;;;25.00;99.90;;;;;;4976623;28;20422;-75
2021/06/26 10:05:12;;;;;;;8.67;6.67;;;24.50;99.90;;;;;;4976804;28;20961;-75
2021/06/26 10:07:39;;;;;;;7.90;6.13;;;25.40;99.90;;;;;;4976823;28;20470;-76
2021/06/26 10:10:06;;;;;;;8.10;6.13;;;25.10;99.90;;;;;;4976631;28;20465;-76
2021/06/26 10:12:35;;;;;;;7.87;6.73;;;25.70;99.90;;;;;;4975464;28;20408;-75
2021/06/26 10:15:01;;;;;;;7.07;5.73;;;25.20;99.90;;;;;;4976210;28;20447;-76
2021/06/26 10:17:28;;;;;;;6.60;5.40;;;25.00;99.90;;;;;;4976724;28;20411;-76
2021/06/26 10:19:54;;;;;;;6.77;6.17;;;25.30;99.90;;;;;;4975465;28;20196;-76
2021/06/26 10:22:19;;;;;;;6.83;6.20;;;25.80;99.90;;;;;;4976753;28;20477;-75
2021/06/26 10:24:46;;;;;;;7.30;6.37;;;26.00;99.90;;;;;;4975804;28;20207;-75
2021/06/26 10:27:30;;;;;;;7.50;6.80;;;26.20;99.90;;;;;;4976712;28;20636;-76
2021/06/26 10:29:55;;;;;;;6.30;5.70;;;26.10;99.90;;;;;;4976412;28;20963;-76
2021/06/26 10:32:21;;;;;;;6.50;5.80;;;26.30;99.90;;;;;;4976253;28;20418;-75
2021/06/26 10:34:49;;;;;;;6.43;5.83;;;26.50;99.90;;;;;;4976076;28;20208;-76
2021/06/26 10:37:24;;;;;;;11.40;6.10;;;26.60;99.90;;;;;;4976261;28;20180;-76
2021/06/26 10:40:08;;;;;;;5.50;5.00;;;26.80;99.90;;;;;;4974995;28;20424;-76
2021/06/26 10:42:35;;;;;;;7.00;6.30;;;27.20;99.90;;;;;;4975874;28;20478;-76
2021/06/26 10:45:06;;;;;;;6.43;5.80;;;27.60;99.90;;;;;;4975831;28;20454;-75
2021/06/26 10:47:42;;;;;;;10.53;5.67;;;27.40;99.90;;;;;;4976004;28;20419;-75
2021/06/26 10:50:19;;;;;;;6.57;5.97;;;28.30;99.90;;;;;;4975822;28;20814;-76
2021/06/26 10:52:52;;;;;;;6.20;5.70;;;28.60;99.90;;;;;;4975660;28;20415;-75
2021/06/26 10:55:31;;;;;;;6.60;6.00;;;28.20;99.90;;;;;;4975817;28;21014;-75
2021/06/26 10:57:58;;;;;;;6.87;5.50;;;27.30;99.90;;;;;;4975887;28;20467;-75
2021/06/26 11:00:41;;;;;;;7.10;5.73;;;28.00;99.90;;;;;;4974412;28;20514;-76
2021/06/26 11:03:19;;;;;;;6.40;5.90;;;28.40;99.90;;;;;;4975547;28;20783;-76
2021/06/26 11:05:45;;;;;;;11.20;6.80;;;28.90;99.90;;;;;;4974358;28;20970;-76
2021/06/26 11:08:18;;;;;;;6.67;6.07;;;29.60;99.90;;;;;;4975677;28;20416;-76
2021/06/26 11:10:56;;;;;;;6.57;5.97;;;28.90;99.90;;;;;;4975730;28;20580;-76
2021/06/26 11:13:23;;;;;;;10.53;6.57;;;29.90;99.90;;;;;;4974007;28;20432;-75
2021/06/26 11:15:49;;;;;;;7.47;6.73;;;29.80;99.90;;;;;;4975726;28;20974;-76
2021/06/26 11:18:16;;;;;;;6.20;5.70;;;29.00;99.90;;;;;;4975725;28;20419;-76
2021/06/26 11:20:42;;;;;;;5.73;5.23;;;29.50;99.90;;;;;;4974311;28;20946;-75
2021/06/26 11:23:08;;;;;;;6.47;5.90;;;29.60;99.90;;;;;;4975287;28;20420;-76
2021/06/26 11:25:34;;;;;;;6.20;5.60;;;29.40;99.90;;;;;;4975393;28;20534;-75
2021/06/26 11:28:08;;;;;;;5.57;5.07;;;30.20;99.90;;;;;;4975306;28;20204;-76
2021/06/26 11:30:35;;;;;;;6.40;5.90;;;30.60;99.90;;;;;;4975024;28;20199;-76
2021/06/26 11:33:01;;;;;;;6.07;5.57;;;30.60;99.90;;;;;;4974887;28;20420;-75
2021/06/26 11:35:37;;;;;;;6.87;5.60;;;29.90;97.50;;;;;;4974797;28;20500;-76
2021/06/26 11:38:03;;;;;;;7.23;6.63;;;29.40;96.00;;;;;;4975398;28;20423;-75
2021/06/26 11:40:30;;;;;;;7.10;6.50;;;28.30;99.90;;;;;;4975137;28;20519;-75
2021/06/26 11:43:05;;;;;;;7.83;7.17;;;28.70;99.90;;;;;;4973565;28;20787;-75
2021/06/26 11:45:36;;;;;;;7.07;6.50;;;28.50;99.90;;;;;;4975210;28;20435;-75
2021/06/26 11:48:04;;;;;;;7.90;7.10;;;29.00;99.90;;;;;;4975129;28;20399;-75
2021/06/26 11:50:31;;;;;;;7.50;6.80;;;29.30;99.90;;;;;;4974936;28;20466;-76
2021/06/26 11:53:13;;;;;;;8.70;6.10;;;28.80;99.90;;;;;;4974513;28;20418;-75
2021/06/26 11:56:03;;;;;;;7.40;6.60;;;29.30;99.90;;;;;;4974770;28;20440;-77
2021/06/26 11:58:49;;;;;;;8.80;6.30;;;29.10;99.90;;;;;;4974894;28;20420;-76
2021/06/26 12:01:25;;;;;;;7.57;6.90;;;28.80;99.90;;;;;;4974733;28;20932;-75
2021/06/26 12:03:51;;;;;;;7.80;7.10;;;29.20;99.90;;;;;;4974473;28;20940;-75
2021/06/26 12:06:17;;;;;;;8.20;7.40;;;28.70;99.90;;;;;;4974735;28;20424;-75
2021/06/26 12:08:48;;;;;;;6.33;5.70;;;28.70;99.90;;;;;;4974410;28;20823;-75
2021/06/26 12:11:25;;;;;;;8.40;6.47;;;29.20;99.90;;;;;;4974589;28;20544;-77
2021/06/26 12:13:53;;;;;;;9.03;6.30;;;29.30;98.00;;;;;;4974192;28;20789;-76
2021/06/26 12:16:21;;;;;;;7.07;6.47;;;29.30;99.40;;;;;;4974663;28;20420;-75
2021/06/26 12:18:50;;;;;;;6.37;5.83;;;29.00;99.50;;;;;;4974390;28;20419;-76
2021/06/26 12:21:16;;;;;;;6.23;5.63;;;29.90;98.60;;;;;;4974341;28;20829;-76
2021/06/26 12:24:00;;;;;;;8.37;5.60;;;30.70;97.80;;;;;;4973832;28;20470;-75
2021/06/26 12:26:27;;;;;;;5.93;5.40;;;30.30;94.20;;;;;;4974696;28;20492;-76
2021/06/26 12:28:53;;;;;;;7.33;6.60;;;29.70;94.00;;;;;;4974566;28;20473;-76
2021/06/26 12:31:21;;;;;;;5.90;5.30;;;29.20;96.80;;;;;;4973116;28;20443;-75